Radiosonde details



Informationen :

Serial : Y2053238
Type : Vaisala RS41-SG
Date of production : 15.05.2026
Frequency : 404.000MHz
Launchsite : White Lake, Mi.
Nearest town : Shelby, US (2.7km)

Altitude (Max) : 8859m at 2026-09-02 23:32:04
Speed (Max) : 96km/h at altitude 5627m

Average speed : 77km/h
Average ascent rate : 5m/s
Average descent rate : 0m/s
Ascent rate (Max) : 8.1m/s
Descent rate (Max): 2.9m/s

First frame :
DJALKS at 2026-09-02 23:09:53 at altitude 2319m (OG: 2277m)
Last frame :
DJALKS at 2026-09-02 23:32:04 at altitude 8859m (OG: 8817m)

Flighttime : 22m11s
Ascent time : 22m11s
Descent time : 0s
Uptime : -
Killtimer : -

Distance (Straight line distance): 28km

Distance (Route):


Frames : 36


Measurement :

Temperature : -27.1°C
Humidity : 51.3%
Pressure : 0hPa


Vertical profile (SkewT) :


Elevation profile :



Receiving stations :


Receiver Frames First received Last received
DJALKS 36 2026-09-02 23:09:53 2026-09-02 23:32:04

Share per receiver :



All frames :


Receiver Date Latitude Longitude Direction Speed Altitude Climb Temperature Humidity Pressure Voltage Killtimer Uptime BKT XDATA
DJALKS2026-09-02 23:32:0442.66809-83.0663792°73km/h8859m5.1m/s-27.1°C51.3%0hPa0V00:00:0000:00:0000:00:00
DJALKS2026-09-02 23:31:3142.66847-83.0741894°68km/h8681m5.9m/s-25.9°C58.1%0hPa0V00:00:0000:00:0000:00:00
DJALKS2026-09-02 23:31:0742.66891-83.0799989°62km/h8553m6.6m/s-24.9°C57.4%0hPa0V00:00:0000:00:0000:00:00
DJALKS2026-09-02 23:30:1242.66972-83.0924398°58km/h8283m4.3m/s-22.7°C56.8%0hPa0V00:00:0000:00:0000:00:00
DJALKS2026-09-02 23:26:1042.67110-83.1467799°73km/h6995m5.9m/s-15.1°C56.8%0hPa0V00:00:0000:00:0000:00:00
DJALKS2026-09-02 23:25:2042.67101-83.1609995°91km/h6684m7.3m/s-12.8°C39.1%0hPa0V00:00:0000:00:0000:00:00
DJALKS2026-09-02 23:25:0042.67130-83.1668296°80km/h6574m3.2m/s-12.1°C39.8%0hPa0V00:00:0000:00:0000:00:00
DJALKS2026-09-02 23:24:4042.67168-83.1728294°80km/h6500m4.5m/s-11.6°C47.7%0hPa0V00:00:0000:00:0000:00:00
DJALKS2026-09-02 23:24:1842.67213-83.17901100°89km/h6425m5.2m/s-11.0°C44.4%0hPa0V00:00:0000:00:0000:00:00
DJALKS2026-09-02 23:23:5042.67240-83.1877891°86km/h6305m4.6m/s-10.5°C59.2%0hPa0V00:00:0000:00:0000:00:00
DJALKS2026-09-02 23:23:2842.67267-83.19430102°82km/h6231m5.1m/s-10.0°C54.8%0hPa0V00:00:0000:00:0000:00:00
DJALKS2026-09-02 23:23:0142.67360-83.2025198°73km/h6119m5.2m/s-9.3°C46.8%0hPa0V00:00:0000:00:0000:00:00
DJALKS2026-09-02 23:22:1542.67507-83.21685101°89km/h5906m4.5m/s-8.5°C24.8%0hPa0V00:00:0000:00:0000:00:00
DJALKS2026-09-02 23:21:5442.67595-83.2235999°91km/h5800m5.4m/s-7.7°C25.2%0hPa0V00:00:0000:00:0000:00:00
DJALKS2026-09-02 23:21:1342.67737-83.2361396°95km/h5627m3.8m/s-6.8°C46.4%0hPa0V00:00:0000:00:0000:00:00
DJALKS2026-09-02 23:20:5342.67800-83.24182101°84km/h5532m4.7m/s-6.4°C71.5%0hPa0V00:00:0000:00:0000:00:00
DJALKS2026-09-02 23:20:3342.67882-83.2476290°75km/h5429m8.1m/s-5.7°C63.0%0hPa0V00:00:0000:00:0000:00:00
DJALKS2026-09-02 23:19:3342.68187-83.26230111°80km/h5125m6.0m/s-4.7°C73.8%0hPa0V00:00:0000:00:0000:00:00
DJALKS2026-09-02 23:18:2942.68524-83.27850103°71km/h4820m6.5m/s-2.8°C94.1%0hPa0V00:00:0000:00:0000:00:00
DJALKS2026-09-02 23:18:0442.68668-83.28525118°84km/h4706m6.5m/s-2.0°C93.3%0hPa0V00:00:0000:00:0000:00:00
DJALKS2026-09-02 23:17:4342.68779-83.29136109°91km/h4613m4.3m/s-1.3°C89.5%0hPa0V00:00:0000:00:0000:00:00
DJALKS2026-09-02 23:17:2342.68887-83.2967794°88km/h4536m4.1m/s-0.8°C88.8%0hPa0V00:00:0000:00:0000:00:00
DJALKS2026-09-02 23:17:0242.69002-83.30262113°86km/h4432m4.4m/s-0.2°C88.0%0hPa0V00:00:0000:00:0000:00:00
DJALKS2026-09-02 23:16:3042.69177-83.31164100°80km/h4266m2.9m/s0.9°C97.2%0hPa0V00:00:0000:00:0000:00:00
DJALKS2026-09-02 23:16:0542.69358-83.3180599°77km/h4134m6.6m/s2.1°C99.2%0hPa0V00:00:0000:00:0000:00:00
DJALKS2026-09-02 23:15:3542.69490-83.32581104°69km/h3973m4.6m/s3.0°C99.3%0hPa0V00:00:0000:00:0000:00:00
DJALKS2026-09-02 23:15:1642.69616-83.33115108°86km/h3861m5.5m/s3.7°C98.3%0hPa0V00:00:0000:00:0000:00:00
DJALKS2026-09-02 23:14:5342.69723-83.33632114°62km/h3744m5.7m/s4.5°C94.6%0hPa0V00:00:0000:00:0000:00:00
DJALKS2026-09-02 23:14:2442.69834-83.34273103°64km/h3599m6.0m/s5.7°C88.6%0hPa0V00:00:0000:00:0000:00:00
DJALKS2026-09-02 23:14:0442.69925-83.34712102°75km/h3492m4.5m/s6.7°C84.6%0hPa0V00:00:0000:00:0000:00:00
DJALKS2026-09-02 23:13:4442.70030-83.3514898°57km/h3391m6.4m/s7.5°C82.8%0hPa0V00:00:0000:00:0000:00:00
DJALKS2026-09-02 23:13:2242.70135-83.35611117°69km/h3275m3.6m/s8.1°C0%0hPa0V00:00:0000:00:0000:00:00
DJALKS2026-09-02 23:13:0142.70218-83.36086100°64km/h3178m3.6m/s8.7°C0%0hPa0V00:00:0000:00:0000:00:00
DJALKS2026-09-02 23:12:4042.70282-83.3652697°68km/h3078m6.2m/s0°C0%0hPa0V00:00:0000:00:0000:00:00
DJALKS2026-09-02 23:12:1942.70341-83.3700693°73km/h2982m4.6m/s0°C0%0hPa0V00:00:0000:00:0000:00:00
DJALKS2026-09-02 23:09:5342.70541-83.40213102°64km/h2319m4.7m/s0°C0%0hPa0V00:00:0000:00:0000:00:00


GPX KML Map

© wettersonde.net (DO2JMG) - 2026  -  -